sensor_id;sensor_type;location;lat;lon;timestamp;P1;durP1;ratioP1;P2;durP2;ratioP2
48026;SDS011;50714;49.208;5.364;2023-05-10T00:03:05;6.05;;;4.75;;
48026;SDS011;50714;49.208;5.364;2023-05-10T00:13:06;4.43;;;3.75;;
48026;SDS011;50714;49.208;5.364;2023-05-10T00:23:06;3.70;;;3.10;;
48026;SDS011;50714;49.208;5.364;2023-05-10T00:33:07;1.13;;;0.93;;
48026;SDS011;50714;49.208;5.364;2023-05-10T00:43:07;1.58;;;0.80;;
48026;SDS011;50714;49.208;5.364;2023-05-10T00:53:07;0.68;;;0.68;;
48026;SDS011;50714;49.208;5.364;2023-05-10T01:03:09;1.30;;;0.82;;
48026;SDS011;50714;49.208;5.364;2023-05-10T01:13:11;1.23;;;0.70;;
48026;SDS011;50714;49.208;5.364;2023-05-10T01:33:39;1.63;;;1.50;;
48026;SDS011;50714;49.208;5.364;2023-05-10T01:54:00;1.80;;;1.38;;
48026;SDS011;50714;49.208;5.364;2023-05-10T02:04:01;1.33;;;1.23;;
48026;SDS011;50714;49.208;5.364;2023-05-10T02:14:05;1.38;;;1.10;;
48026;SDS011;50714;49.208;5.364;2023-05-10T02:24:09;1.02;;;0.90;;
48026;SDS011;50714;49.208;5.364;2023-05-10T02:34:11;4.80;;;3.97;;
48026;SDS011;50714;49.208;5.364;2023-05-10T02:44:12;3.78;;;2.25;;
48026;SDS011;50714;49.208;5.364;2023-05-10T02:54:20;1.45;;;1.20;;
48026;SDS011;50714;49.208;5.364;2023-05-10T03:04:29;2.15;;;1.40;;
48026;SDS011;50714;49.208;5.364;2023-05-10T03:24:51;1.23;;;0.90;;
48026;SDS011;50714;49.208;5.364;2023-05-10T03:34:55;0.90;;;0.90;;
48026;SDS011;50714;49.208;5.364;2023-05-10T03:44:55;1.40;;;0.88;;
48026;SDS011;50714;49.208;5.364;2023-05-10T03:54:56;1.30;;;1.08;;
48026;SDS011;50714;49.208;5.364;2023-05-10T04:04:56;2.25;;;1.05;;
48026;SDS011;50714;49.208;5.364;2023-05-10T04:14:57;1.52;;;1.10;;
48026;SDS011;50714;49.208;5.364;2023-05-10T04:24:57;1.10;;;1.00;;
48026;SDS011;50714;49.208;5.364;2023-05-10T04:34:58;1.10;;;1.00;;
48026;SDS011;50714;49.208;5.364;2023-05-10T04:44:58;1.52;;;1.20;;
48026;SDS011;50714;49.208;5.364;2023-05-10T04:54:58;1.92;;;1.40;;
48026;SDS011;50714;49.208;5.364;2023-05-10T05:04:59;2.22;;;1.35;;
48026;SDS011;50714;49.208;5.364;2023-05-10T05:14:59;1.67;;;1.10;;
48026;SDS011;50714;49.208;5.364;2023-05-10T05:25:00;1.42;;;1.30;;
48026;SDS011;50714;49.208;5.364;2023-05-10T05:35:02;1.77;;;1.50;;
48026;SDS011;50714;49.208;5.364;2023-05-10T05:45:02;2.25;;;1.33;;
48026;SDS011;50714;49.208;5.364;2023-05-10T05:55:03;2.60;;;1.45;;
48026;SDS011;50714;49.208;5.364;2023-05-10T06:05:03;2.33;;;1.10;;
48026;SDS011;50714;49.208;5.364;2023-05-10T06:15:04;1.92;;;1.10;;
48026;SDS011;50714;49.208;5.364;2023-05-10T06:25:05;1.98;;;1.20;;
48026;SDS011;50714;49.208;5.364;2023-05-10T06:35:06;2.90;;;1.40;;
48026;SDS011;50714;49.208;5.364;2023-05-10T06:45:07;3.15;;;1.35;;
48026;SDS011;50714;49.208;5.364;2023-05-10T06:55:10;2.50;;;1.23;;
48026;SDS011;50714;49.208;5.364;2023-05-10T07:05:10;1.25;;;1.00;;
48026;SDS011;50714;49.208;5.364;2023-05-10T07:15:11;2.70;;;1.20;;
48026;SDS011;50714;49.208;5.364;2023-05-10T07:25:12;1.73;;;1.10;;
48026;SDS011;50714;49.208;5.364;2023-05-10T07:35:12;2.28;;;1.10;;
48026;SDS011;50714;49.208;5.364;2023-05-10T07:45:12;3.03;;;0.85;;
48026;SDS011;50714;49.208;5.364;2023-05-10T07:55:13;2.65;;;0.93;;
48026;SDS011;50714;49.208;5.364;2023-05-10T08:05:14;1.35;;;0.68;;
48026;SDS011;50714;49.208;5.364;2023-05-10T08:15:14;1.15;;;0.68;;
48026;SDS011;50714;49.208;5.364;2023-05-10T08:25:14;1.80;;;0.90;;
48026;SDS011;50714;49.208;5.364;2023-05-10T08:35:15;1.38;;;0.60;;
48026;SDS011;50714;49.208;5.364;2023-05-10T08:45:16;1.17;;;0.55;;
48026;SDS011;50714;49.208;5.364;2023-05-10T08:55:19;0.75;;;0.50;;
48026;SDS011;50714;49.208;5.364;2023-05-10T09:05:19;2.13;;;0.70;;
48026;SDS011;50714;49.208;5.364;2023-05-10T09:15:19;1.30;;;0.50;;
48026;SDS011;50714;49.208;5.364;2023-05-10T09:25:20;1.50;;;0.70;;
48026;SDS011;50714;49.208;5.364;2023-05-10T09:35:29;0.80;;;0.63;;
48026;SDS011;50714;49.208;5.364;2023-05-10T09:45:31;0.30;;;0.30;;
48026;SDS011;50714;49.208;5.364;2023-05-10T10:05:36;1.95;;;0.80;;
48026;SDS011;50714;49.208;5.364;2023-05-10T10:15:36;0.75;;;0.50;;
48026;SDS011;50714;49.208;5.364;2023-05-10T10:25:37;0.60;;;0.50;;
48026;SDS011;50714;49.208;5.364;2023-05-10T10:35:38;0.70;;;0.43;;
48026;SDS011;50714;49.208;5.364;2023-05-10T10:45:40;1.30;;;0.60;;
48026;SDS011;50714;49.208;5.364;2023-05-10T10:55:47;0.45;;;0.35;;
48026;SDS011;50714;49.208;5.364;2023-05-10T11:05:48;1.02;;;0.73;;
48026;SDS011;50714;49.208;5.364;2023-05-10T11:15:49;1.33;;;0.50;;
48026;SDS011;50714;49.208;5.364;2023-05-10T11:25:50;0.90;;;0.50;;
48026;SDS011;50714;49.208;5.364;2023-05-10T11:35:50;0.95;;;0.50;;
48026;SDS011;50714;49.208;5.364;2023-05-10T11:45:51;0.90;;;0.45;;
48026;SDS011;50714;49.208;5.364;2023-05-10T11:55:51;0.57;;;0.50;;
48026;SDS011;50714;49.208;5.364;2023-05-10T12:05:52;2.33;;;0.85;;
48026;SDS011;50714;49.208;5.364;2023-05-10T12:15:52;0.80;;;0.50;;
48026;SDS011;50714;49.208;5.364;2023-05-10T12:25:52;0.95;;;0.50;;
48026;SDS011;50714;49.208;5.364;2023-05-10T12:35:54;0.68;;;0.40;;
48026;SDS011;50714;49.208;5.364;2023-05-10T12:45:54;0.40;;;0.40;;
48026;SDS011;50714;49.208;5.364;2023-05-10T12:55:55;0.40;;;0.40;;
48026;SDS011;50714;49.208;5.364;2023-05-10T13:05:55;1.00;;;0.50;;
48026;SDS011;50714;49.208;5.364;2023-05-10T13:15:56;0.68;;;0.40;;
48026;SDS011;50714;49.208;5.364;2023-05-10T13:25:56;0.40;;;0.40;;
48026;SDS011;50714;49.208;5.364;2023-05-10T13:35:58;0.70;;;0.40;;
48026;SDS011;50714;49.208;5.364;2023-05-10T13:45:58;0.45;;;0.45;;
48026;SDS011;50714;49.208;5.364;2023-05-10T13:55:59;0.40;;;0.30;;
48026;SDS011;50714;49.208;5.364;2023-05-10T14:05:59;0.45;;;0.45;;
48026;SDS011;50714;49.208;5.364;2023-05-10T14:15:59;0.40;;;0.40;;
48026;SDS011;50714;49.208;5.364;2023-05-10T14:26:03;0.30;;;0.30;;
48026;SDS011;50714;49.208;5.364;2023-05-10T14:36:03;0.80;;;0.57;;
48026;SDS011;50714;49.208;5.364;2023-05-10T14:46:03;0.82;;;0.40;;
48026;SDS011;50714;49.208;5.364;2023-05-10T14:56:04;0.60;;;0.50;;
48026;SDS011;50714;49.208;5.364;2023-05-10T15:06:05;0.37;;;0.30;;
48026;SDS011;50714;49.208;5.364;2023-05-10T15:16:05;0.30;;;0.30;;
48026;SDS011;50714;49.208;5.364;2023-05-10T15:26:06;0.40;;;0.30;;
48026;SDS011;50714;49.208;5.364;2023-05-10T15:36:06;0.60;;;0.60;;
48026;SDS011;50714;49.208;5.364;2023-05-10T15:46:07;0.50;;;0.50;;
48026;SDS011;50714;49.208;5.364;2023-05-10T15:56:07;1.15;;;0.38;;
48026;SDS011;50714;49.208;5.364;2023-05-10T16:06:07;0.30;;;0.30;;
48026;SDS011;50714;49.208;5.364;2023-05-10T16:16:08;0.63;;;0.32;;
48026;SDS011;50714;49.208;5.364;2023-05-10T16:26:08;0.98;;;0.50;;
48026;SDS011;50714;49.208;5.364;2023-05-10T16:36:08;0.70;;;0.57;;
48026;SDS011;50714;49.208;5.364;2023-05-10T16:46:09;0.40;;;0.40;;
48026;SDS011;50714;49.208;5.364;2023-05-10T16:56:10;0.57;;;0.40;;
48026;SDS011;50714;49.208;5.364;2023-05-10T17:06:10;0.40;;;0.40;;
48026;SDS011;50714;49.208;5.364;2023-05-10T17:16:11;4.55;;;1.60;;
48026;SDS011;50714;49.208;5.364;2023-05-10T17:26:11;1.52;;;1.42;;
48026;SDS011;50714;49.208;5.364;2023-05-10T17:36:12;0.90;;;0.90;;
48026;SDS011;50714;49.208;5.364;2023-05-10T17:46:12;2.65;;;2.25;;
48026;SDS011;50714;49.208;5.364;2023-05-10T17:56:12;0.80;;;0.80;;
48026;SDS011;50714;49.208;5.364;2023-05-10T18:06:13;0.57;;;0.57;;
48026;SDS011;50714;49.208;5.364;2023-05-10T18:16:13;0.55;;;0.55;;
48026;SDS011;50714;49.208;5.364;2023-05-10T18:26:13;0.80;;;0.80;;
48026;SDS011;50714;49.208;5.364;2023-05-10T18:36:14;0.77;;;0.60;;
48026;SDS011;50714;49.208;5.364;2023-05-10T18:46:15;0.50;;;0.50;;
48026;SDS011;50714;49.208;5.364;2023-05-10T18:56:15;1.10;;;1.00;;
48026;SDS011;50714;49.208;5.364;2023-05-10T19:06:15;1.10;;;0.90;;
48026;SDS011;50714;49.208;5.364;2023-05-10T19:16:16;1.00;;;0.70;;
48026;SDS011;50714;49.208;5.364;2023-05-10T19:26:17;0.60;;;0.60;;
48026;SDS011;50714;49.208;5.364;2023-05-10T19:36:17;0.70;;;0.70;;
48026;SDS011;50714;49.208;5.364;2023-05-10T19:46:18;0.77;;;0.77;;
48026;SDS011;50714;49.208;5.364;2023-05-10T19:56:18;1.00;;;0.70;;
48026;SDS011;50714;49.208;5.364;2023-05-10T20:06:18;0.52;;;0.52;;
48026;SDS011;50714;49.208;5.364;2023-05-10T20:16:19;1.45;;;1.35;;
48026;SDS011;50714;49.208;5.364;2023-05-10T20:26:19;0.85;;;0.80;;
48026;SDS011;50714;49.208;5.364;2023-05-10T20:36:20;1.63;;;0.88;;
48026;SDS011;50714;49.208;5.364;2023-05-10T20:46:20;1.08;;;0.90;;
48026;SDS011;50714;49.208;5.364;2023-05-10T20:56:22;1.00;;;0.82;;
48026;SDS011;50714;49.208;5.364;2023-05-10T21:06:22;0.77;;;0.70;;
48026;SDS011;50714;49.208;5.364;2023-05-10T21:16:22;1.40;;;0.80;;
48026;SDS011;50714;49.208;5.364;2023-05-10T21:26:23;1.02;;;0.93;;
48026;SDS011;50714;49.208;5.364;2023-05-10T21:36:23;2.13;;;1.20;;
48026;SDS011;50714;49.208;5.364;2023-05-10T21:46:24;1.95;;;1.10;;
48026;SDS011;50714;49.208;5.364;2023-05-10T21:56:24;2.08;;;1.58;;
48026;SDS011;50714;49.208;5.364;2023-05-10T22:06:25;2.03;;;1.55;;
48026;SDS011;50714;49.208;5.364;2023-05-10T22:16:25;2.10;;;1.50;;
48026;SDS011;50714;49.208;5.364;2023-05-10T22:26:26;1.48;;;1.35;;
48026;SDS011;50714;49.208;5.364;2023-05-10T22:36:26;2.38;;;1.52;;
48026;SDS011;50714;49.208;5.364;2023-05-10T22:46:27;2.95;;;1.73;;
48026;SDS011;50714;49.208;5.364;2023-05-10T22:56:28;2.75;;;1.55;;
48026;SDS011;50714;49.208;5.364;2023-05-10T23:06:29;1.52;;;1.40;;
48026;SDS011;50714;49.208;5.364;2023-05-10T23:16:30;1.38;;;1.27;;
48026;SDS011;50714;49.208;5.364;2023-05-10T23:26:30;3.22;;;1.92;;
48026;SDS011;50714;49.208;5.364;2023-05-10T23:36:31;2.95;;;2.13;;
48026;SDS011;50714;49.208;5.364;2023-05-10T23:46:32;2.58;;;2.00;;
48026;SDS011;50714;49.208;5.364;2023-05-10T23:56:32;2.38;;;2.17;;
